createdAt,value
2022-09-01T00:04:21.853Z,980.17
2022-09-01T00:16:22.376Z,980.19
2022-09-01T00:28:22.751Z,980.02
2022-09-01T00:40:23.219Z,980.02
2022-09-01T00:52:23.645Z,980.00
2022-09-01T01:04:24.099Z,979.81
2022-09-01T01:16:24.582Z,979.86
2022-09-01T01:28:25.015Z,979.75
2022-09-01T01:40:25.545Z,979.71
2022-09-01T01:52:26.294Z,979.51
2022-09-01T02:04:26.404Z,979.45
2022-09-01T02:16:26.893Z,979.40
2022-09-01T02:28:27.307Z,979.44
2022-09-01T02:40:27.775Z,979.57
2022-09-01T02:52:28.176Z,979.54
2022-09-01T03:04:28.652Z,979.48
2022-09-01T03:16:29.211Z,979.38
2022-09-01T03:28:29.604Z,979.48
2022-09-01T03:40:30.029Z,979.28
2022-09-01T03:52:30.470Z,979.20
2022-09-01T04:04:30.932Z,979.26
2022-09-01T04:16:31.447Z,979.25
2022-09-01T04:28:31.887Z,979.32
2022-09-01T04:40:32.318Z,979.26
2022-09-01T04:52:32.685Z,979.35
2022-09-01T05:04:33.207Z,979.40
2022-09-01T05:16:33.640Z,979.39
2022-09-01T05:28:34.123Z,979.36
2022-09-01T05:40:34.622Z,979.35
2022-09-01T05:52:35.019Z,979.43
2022-09-01T06:04:35.459Z,979.37
2022-09-01T06:16:35.973Z,979.43
2022-09-01T06:28:36.386Z,979.50
2022-09-01T06:40:36.885Z,979.39
2022-09-01T07:04:37.744Z,979.37
2022-09-01T07:16:41.833Z,979.49
2022-09-01T07:28:38.674Z,979.65
2022-09-01T07:52:39.562Z,979.70
2022-09-01T08:04:39.997Z,979.90
2022-09-01T08:16:51.884Z,979.83
2022-09-01T08:28:45.989Z,979.95
2022-09-01T08:40:41.390Z,980.05
2022-09-01T08:52:41.842Z,980.13
2022-09-01T09:04:42.316Z,980.02
2022-09-01T09:16:42.720Z,980.05
2022-09-01T09:28:43.277Z,980.08
2022-09-01T09:41:10.620Z,979.95
2022-09-01T09:52:44.103Z,979.85
2022-09-01T10:04:44.568Z,979.78
2022-09-01T10:16:45.076Z,979.74
2022-09-01T10:28:48.848Z,979.62
2022-09-01T10:40:49.158Z,979.34
2022-09-01T10:52:50.518Z,979.49
2022-09-01T11:04:46.985Z,979.53
2022-09-01T11:16:49.131Z,979.49
2022-09-01T11:28:47.789Z,979.50
2022-09-01T11:40:48.370Z,979.38
2022-09-01T11:52:48.668Z,979.39
2022-09-01T12:04:49.117Z,979.23
2022-09-01T12:16:49.587Z,979.09
2022-09-01T12:28:50.041Z,979.33
2022-09-01T12:40:50.538Z,979.23
2022-09-01T12:52:52.339Z,979.33
2022-09-01T13:04:51.413Z,979.23
2022-09-01T13:16:51.880Z,979.32
2022-09-01T13:28:52.304Z,979.23
2022-09-01T13:40:52.792Z,979.27
2022-09-01T13:52:55.376Z,979.35
2022-09-01T14:04:53.709Z,979.20
2022-09-01T14:16:54.133Z,979.23
2022-09-01T14:28:54.564Z,979.41
2022-09-01T14:40:55.107Z,979.30
2022-09-01T14:52:55.477Z,979.30
2022-09-01T15:04:56.005Z,979.28
2022-09-01T15:16:56.441Z,979.33
2022-09-01T15:28:56.893Z,979.30
2022-09-01T15:40:58.493Z,979.43
2022-09-01T15:52:57.766Z,979.43
2022-09-01T16:04:58.234Z,979.42
2022-09-01T16:16:58.719Z,979.34
2022-09-01T16:28:59.160Z,979.43
2022-09-01T16:40:59.612Z,979.44
2022-09-01T16:53:00.048Z,979.49
2022-09-01T17:05:00.553Z,979.56
2022-09-01T17:17:01.000Z,979.60
2022-09-01T17:29:01.441Z,979.68
2022-09-01T17:41:01.870Z,979.85
2022-09-01T17:53:02.368Z,979.98
2022-09-01T18:05:02.907Z,980.17
2022-09-01T18:17:03.234Z,980.40
2022-09-01T18:29:03.694Z,980.44
2022-09-01T18:41:04.173Z,980.56
2022-09-01T18:53:04.609Z,980.58
2022-09-01T19:05:05.080Z,980.71
2022-09-01T19:17:05.538Z,980.82
2022-09-01T19:29:06.122Z,980.81
2022-09-01T19:41:06.448Z,980.92
2022-09-01T19:53:06.884Z,980.92
2022-09-01T20:05:07.312Z,980.97
2022-09-01T20:17:07.827Z,981.15
2022-09-01T20:29:08.241Z,981.26
2022-09-01T20:41:08.712Z,981.35
2022-09-01T20:53:09.152Z,981.27
2022-09-01T21:05:09.621Z,981.32
2022-09-01T21:17:10.083Z,981.30
2022-09-01T21:29:10.544Z,981.30
2022-09-01T21:41:12.863Z,981.29
2022-09-01T21:53:11.458Z,981.16
2022-09-01T22:05:11.892Z,981.18
2022-09-01T22:17:12.406Z,981.09
2022-09-01T22:29:12.802Z,981.12
2022-09-01T22:41:13.278Z,981.02
2022-09-01T22:53:13.727Z,980.99
2022-09-01T23:05:14.164Z,980.98
2022-09-01T23:17:14.625Z,980.85
2022-09-01T23:29:15.082Z,980.86
2022-09-01T23:41:15.543Z,980.75
2022-09-01T23:53:15.987Z,980.68
